Carlson, Washington
Current Conditions -  °F | °C
As of 4:58 PM on Saturday 20 Dec 2014 (Local Time) from KGRF Reporting Station
Light Rain Light Rain  
Wind Chill: 53°   Ceiling: 3300
Heat Index: 53°   Visibility: 10mi
Dew Point: 53°   Wind: 8mph
Humidity: 99%   Direction: 170°S
Pressure: 29.49"   Gusts: 22mph
Location:  46.6944°N, 122.245°W
Report Text: KGRF 210058Z 17007G19KT 10SM -RA FEW012 SCT024 OVC033 12/11 A2949 RMK AO2A RAE2358RAB00E32DZB32E34RAB34E35DZB39E44RAB44 SLP990 P0003 T01160114 $
Loading
Personal Weather Stations






























Interactive Weather Map New forecast layout! Learn more

10-Day Weather Forecast

Advertisements
Track Severe Weather on mobile